createdAt,value
2019-01-19T00:00:46.650Z,0
2019-01-19T00:01:46.907Z,0
2019-01-19T00:02:46.594Z,0
2019-01-19T00:03:46.574Z,0
2019-01-19T00:04:46.564Z,0
2019-01-19T00:05:46.541Z,0
2019-01-19T00:06:46.284Z,0
2019-01-19T00:07:46.772Z,0
2019-01-19T00:08:46.763Z,0
2019-01-19T00:09:46.508Z,0
2019-01-19T00:10:46.481Z,0
2019-01-19T00:11:46.485Z,0
2019-01-19T00:12:46.205Z,0
2019-01-19T00:13:46.495Z,0
2019-01-19T00:14:46.423Z,0
2019-01-19T00:15:46.413Z,0
2019-01-19T00:16:46.455Z,0
2019-01-19T00:17:46.379Z,0
2019-01-19T00:18:45.934Z,0
2019-01-19T00:19:46.122Z,0
2019-01-19T00:20:46.607Z,0
2019-01-19T00:21:46.410Z,0
2019-01-19T00:22:46.566Z,0
2019-01-19T00:23:46.078Z,0
2019-01-19T00:24:46.616Z,0
2019-01-19T00:25:46.303Z,0
2019-01-19T00:26:46.101Z,0
2019-01-19T00:27:46.001Z,0
2019-01-19T00:28:46.537Z,0
2019-01-19T00:29:45.998Z,0
2019-01-19T00:30:46.271Z,0
2019-01-19T00:31:46.230Z,0
2019-01-19T00:32:46.202Z,0
2019-01-19T00:33:46.430Z,0
2019-01-19T00:34:45.920Z,0
2019-01-19T00:35:46.151Z,0
2019-01-19T00:36:46.160Z,0
2019-01-19T00:37:45.611Z,0
2019-01-19T00:38:46.119Z,0
2019-01-19T00:39:46.334Z,0
2019-01-19T00:40:45.838Z,0
2019-01-19T00:41:46.098Z,0
2019-01-19T00:42:46.340Z,0
2019-01-19T00:43:46.068Z,0
2019-01-19T00:44:46.015Z,0
2019-01-19T00:45:45.755Z,0
2019-01-19T00:46:46.272Z,0
2019-01-19T00:47:45.992Z,0
2019-01-19T00:48:46.228Z,0
2019-01-19T00:49:45.972Z,0
2019-01-19T00:50:45.950Z,0
2019-01-19T00:51:45.954Z,0
2019-01-19T00:52:45.923Z,0
2019-01-19T00:53:45.920Z,0
2019-01-19T00:54:45.886Z,0
2019-01-19T00:55:45.397Z,0
2019-01-19T00:56:45.710Z,0
2019-01-19T00:57:45.849Z,0
2019-01-19T00:58:45.836Z,0
2019-01-19T00:59:45.995Z,0
2019-01-19T01:00:45.805Z,0
2019-01-19T01:01:46.083Z,0
2019-01-19T01:02:45.790Z,0
2019-01-19T01:03:45.759Z,0
2019-01-19T01:04:46.017Z,0
2019-01-19T01:05:45.751Z,0
2019-01-19T01:06:45.991Z,0
2019-01-19T01:07:45.509Z,0
2019-01-19T01:08:45.727Z,0
2019-01-19T01:09:45.685Z,0
2019-01-19T01:10:45.670Z,0
2019-01-19T01:11:45.460Z,0
2019-01-19T01:12:45.418Z,0
2019-01-19T01:13:45.643Z,0
2019-01-19T01:14:45.368Z,0
2019-01-19T01:15:45.600Z,0
2019-01-19T01:16:45.881Z,0
2019-01-19T01:17:45.835Z,0
2019-01-19T01:18:45.820Z,0
2019-01-19T01:19:45.807Z,0
2019-01-19T01:20:45.801Z,0
2019-01-19T01:21:45.816Z,0
2019-01-19T01:22:45.803Z,0
2019-01-19T01:23:45.483Z,0
2019-01-19T01:24:45.479Z,0
2019-01-19T01:25:45.494Z,0
2019-01-19T01:26:45.777Z,0
2019-01-19T01:27:45.470Z,0
2019-01-19T01:28:45.226Z,0
2019-01-19T01:29:45.685Z,0
2019-01-19T01:30:45.403Z,0
2019-01-19T01:31:45.690Z,0
2019-01-19T01:32:45.154Z,0
2019-01-19T01:33:44.875Z,0
2019-01-19T01:34:45.360Z,0
2019-01-19T01:35:45.380Z,0
2019-01-19T01:36:45.603Z,0
2019-01-19T01:37:45.315Z,0
2019-01-19T01:38:45.033Z,0
2019-01-19T01:39:45.543Z,0
2019-01-19T01:40:45.499Z,0
2019-01-19T01:41:45.543Z,0
2019-01-19T01:42:45.228Z,0
2019-01-19T01:43:45.474Z,0
2019-01-19T01:44:44.986Z,0
2019-01-19T01:45:45.450Z,0
2019-01-19T01:46:45.185Z,0
2019-01-19T01:47:45.486Z,0
2019-01-19T01:48:45.142Z,0
2019-01-19T01:49:45.389Z,0
2019-01-19T01:50:45.137Z,0
2019-01-19T01:51:45.456Z,0
2019-01-19T01:52:45.102Z,0
2019-01-19T01:53:45.340Z,0
2019-01-19T01:54:45.329Z,0
2019-01-19T01:55:45.084Z,0
2019-01-19T01:56:45.382Z,0
2019-01-19T01:57:45.266Z,0
2019-01-19T01:58:45.018Z,0
2019-01-19T01:59:44.989Z,0
2019-01-19T02:00:45.265Z,0
2019-01-19T02:01:45.069Z,0
2019-01-19T02:02:45.231Z,0
2019-01-19T02:03:44.936Z,0
2019-01-19T02:04:45.192Z,0
2019-01-19T02:05:47.387Z,0
2019-01-19T02:06:44.899Z,0
2019-01-19T02:07:44.896Z,0
2019-01-19T02:08:44.887Z,0
2019-01-19T02:09:44.861Z,0
2019-01-19T02:10:45.711Z,0
2019-01-19T02:11:44.623Z,0
2019-01-19T02:12:45.065Z,0
2019-01-19T02:13:45.078Z,0
2019-01-19T02:14:45.048Z,0
2019-01-19T02:15:45.030Z,0
2019-01-19T02:16:44.831Z,0
2019-01-19T02:17:44.757Z,0
2019-01-19T02:18:44.501Z,0
2019-01-19T02:19:44.970Z,0
2019-01-19T02:20:44.951Z,0
2019-01-19T02:21:44.702Z,0
2019-01-19T02:22:44.678Z,0
2019-01-19T02:23:44.677Z,0
2019-01-19T02:24:44.650Z,0
2019-01-19T02:25:44.909Z,0
2019-01-19T02:26:44.924Z,0
2019-01-19T02:27:44.618Z,0
2019-01-19T02:28:44.609Z,0
2019-01-19T02:29:44.328Z,0
2019-01-19T02:30:44.899Z,0
2019-01-19T02:31:44.366Z,0
2019-01-19T02:32:44.582Z,0
2019-01-19T02:33:44.562Z,0
2019-01-19T02:34:44.504Z,0
2019-01-19T02:35:50.989Z,0
2019-01-19T02:36:44.778Z,0
2019-01-19T02:37:44.246Z,0
2019-01-19T02:38:44.708Z,0
2019-01-19T02:39:44.462Z,0
2019-01-19T02:40:44.680Z,0
2019-01-19T02:41:44.410Z,0
2019-01-19T02:42:44.662Z,0
2019-01-19T02:43:44.646Z,0
2019-01-19T02:44:44.632Z,0
2019-01-19T02:45:44.359Z,0
2019-01-19T02:46:44.448Z,0
2019-01-19T02:47:44.332Z,0
2019-01-19T02:48:44.576Z,0
2019-01-19T02:49:44.322Z,0
2019-01-19T02:50:44.573Z,0
2019-01-19T02:51:44.323Z,0
2019-01-19T02:52:44.267Z,0
2019-01-19T02:53:44.509Z,0
2019-01-19T02:54:44.244Z,0
2019-01-19T02:55:44.477Z,0
2019-01-19T02:56:44.466Z,0
2019-01-19T02:57:43.940Z,0
2019-01-19T02:58:43.935Z,0
2019-01-19T02:59:44.175Z,0
2019-01-19T03:00:43.664Z,0
2019-01-19T03:01:44.456Z,0
2019-01-19T03:02:44.386Z,0
2019-01-19T03:03:44.349Z,0
2019-01-19T03:04:44.130Z,0
2019-01-19T03:05:44.344Z,0
2019-01-19T03:06:44.160Z,0
2019-01-19T03:07:44.309Z,0
2019-01-19T03:08:43.781Z,0
2019-01-19T03:09:44.025Z,0
2019-01-19T03:10:44.024Z,0
2019-01-19T03:11:44.815Z,0
2019-01-19T03:12:43.737Z,0
2019-01-19T03:13:43.974Z,0
2019-01-19T03:14:43.718Z,0
2019-01-19T03:15:43.702Z,0
2019-01-19T03:16:43.769Z,0
2019-01-19T03:17:43.498Z,0
2019-01-19T03:18:44.190Z,0
2019-01-19T03:19:43.643Z,0
2019-01-19T03:20:43.636Z,0
2019-01-19T03:21:44.172Z,0
2019-01-19T03:22:44.143Z,0
2019-01-19T03:23:43.593Z,0
2019-01-19T03:24:43.889Z,0
2019-01-19T03:25:43.564Z,0
2019-01-19T03:26:44.063Z,0
2019-01-19T03:27:44.014Z,0
2019-01-19T03:28:43.538Z,0
2019-01-19T03:29:43.801Z,0
2019-01-19T03:30:43.580Z,0
2019-01-19T03:31:43.982Z,0
2019-01-19T03:32:43.721Z,0
2019-01-19T03:33:43.430Z,0
2019-01-19T03:34:43.676Z,0
2019-01-19T03:35:43.745Z,0
2019-01-19T03:36:43.647Z,0
2019-01-19T03:37:43.880Z,0
2019-01-19T03:38:43.364Z,0
2019-01-19T03:39:43.844Z,0
2019-01-19T03:40:43.822Z,0
2019-01-19T03:41:43.639Z,0
2019-01-19T03:42:43.548Z,0
2019-01-19T03:43:43.536Z,0
2019-01-19T03:44:43.780Z,0
2019-01-19T03:45:43.570Z,0
2019-01-19T03:46:43.913Z,0
2019-01-19T03:47:43.506Z,0
2019-01-19T03:48:43.478Z,0
2019-01-19T03:49:43.213Z,0
2019-01-19T03:50:42.951Z,0
2019-01-19T03:51:43.466Z,0
2019-01-19T03:52:43.664Z,0
2019-01-19T03:53:43.675Z,0
2019-01-19T03:54:43.421Z,0
2019-01-19T03:55:43.382Z,0
2019-01-19T03:56:43.432Z,0
2019-01-19T03:57:43.350Z,0
2019-01-19T03:58:43.347Z,0
2019-01-19T03:59:43.347Z,0
2019-01-19T04:00:43.627Z,0
2019-01-19T04:01:43.125Z,0
2019-01-19T04:02:43.025Z,0
2019-01-19T04:03:43.005Z,0
2019-01-19T04:04:43.282Z,0
2019-01-19T04:05:43.234Z,0
2019-01-19T04:06:43.218Z,0
2019-01-19T04:07:43.473Z,0
2019-01-19T04:08:43.192Z,0
2019-01-19T04:09:43.448Z,0
2019-01-19T04:10:43.171Z,0
2019-01-19T04:11:43.276Z,0
2019-01-19T04:12:43.143Z,0
2019-01-19T04:13:42.860Z,0
2019-01-19T04:14:42.864Z,0
2019-01-19T04:15:43.168Z,0
2019-01-19T04:16:43.243Z,0
2019-01-19T04:17:42.825Z,0
2019-01-19T04:18:43.075Z,0
2019-01-19T04:19:43.270Z,0
2019-01-19T04:20:42.762Z,0
2019-01-19T04:21:42.759Z,0
2019-01-19T04:22:42.799Z,0
2019-01-19T04:23:42.969Z,0
2019-01-19T04:24:42.986Z,0
2019-01-19T04:25:42.984Z,0
2019-01-19T04:26:43.310Z,0
2019-01-19T04:27:42.928Z,0
2019-01-19T04:28:42.438Z,0
2019-01-19T04:29:42.913Z,0
2019-01-19T04:30:42.654Z,0
2019-01-19T04:31:43.191Z,0
2019-01-19T04:32:42.880Z,0
2019-01-19T04:33:42.843Z,0
2019-01-19T04:34:42.598Z,0
2019-01-19T04:35:42.548Z,0
2019-01-19T04:36:42.907Z,0
2019-01-19T04:37:43.018Z,0
2019-01-19T04:38:42.622Z,0
2019-01-19T04:39:42.792Z,0
2019-01-19T04:40:42.481Z,0
2019-01-19T04:41:43.024Z,0
2019-01-19T04:42:42.486Z,0
2019-01-19T04:43:42.721Z,0
2019-01-19T04:44:42.983Z,0
2019-01-19T04:45:42.911Z,0
2019-01-19T04:46:42.418Z,0
2019-01-19T04:47:42.653Z,0
2019-01-19T04:48:42.648Z,0
2019-01-19T04:49:42.889Z,0
2019-01-19T04:50:42.394Z,0
2019-01-19T04:51:42.588Z,0
2019-01-19T04:52:42.312Z,0
2019-01-19T04:53:42.550Z,0
2019-01-19T04:54:42.527Z,0
2019-01-19T04:55:42.535Z,0
2019-01-19T04:56:42.509Z,0
2019-01-19T04:57:42.738Z,0
2019-01-19T04:58:42.489Z,0
2019-01-19T04:59:42.496Z,0
2019-01-19T05:00:42.200Z,0
2019-01-19T05:01:42.195Z,0
2019-01-19T05:02:42.422Z,0
2019-01-19T05:03:42.414Z,0
2019-01-19T05:04:42.694Z,0
2019-01-19T05:05:42.614Z,0
2019-01-19T05:06:42.604Z,0
2019-01-19T05:07:42.588Z,0
2019-01-19T05:08:42.374Z,0
2019-01-19T05:09:42.315Z,0
2019-01-19T05:10:42.370Z,0
2019-01-19T05:11:42.056Z,0
2019-01-19T05:12:43.430Z,0
2019-01-19T05:13:42.254Z,0
2019-01-19T05:14:42.274Z,0
2019-01-19T05:15:42.258Z,0
2019-01-19T05:16:42.477Z,0
2019-01-19T05:17:42.237Z,0
2019-01-19T05:18:42.195Z,0
2019-01-19T05:19:42.422Z,0
2019-01-19T05:20:42.412Z,0
2019-01-19T05:21:42.412Z,0
2019-01-19T05:22:42.380Z,0
2019-01-19T05:23:41.858Z,0
2019-01-19T05:24:41.860Z,0
2019-01-19T05:25:42.360Z,0
2019-01-19T05:26:42.078Z,0
2019-01-19T05:27:42.336Z,0
2019-01-19T05:28:42.058Z,0
2019-01-19T05:29:42.085Z,0
2019-01-19T05:30:42.279Z,0
2019-01-19T05:31:42.041Z,0
2019-01-19T05:32:42.282Z,0
2019-01-19T05:33:42.247Z,0
2019-01-19T05:34:41.733Z,0
2019-01-19T05:35:42.223Z,0
2019-01-19T05:36:45.214Z,0
2019-01-19T05:37:42.150Z,0
2019-01-19T05:38:41.657Z,0
2019-01-19T05:39:41.892Z,0
2019-01-19T05:40:41.879Z,0
2019-01-19T05:41:41.349Z,0
2019-01-19T05:42:41.578Z,0
2019-01-19T05:43:41.581Z,0
2019-01-19T05:44:42.068Z,0
2019-01-19T05:45:41.790Z,0
2019-01-19T05:46:41.789Z,0
2019-01-19T05:47:41.511Z,0
2019-01-19T05:48:42.000Z,0
2019-01-19T05:49:41.755Z,0
2019-01-19T05:50:41.718Z,0
2019-01-19T05:51:41.981Z,0
2019-01-19T05:52:41.710Z,0
2019-01-19T05:53:41.668Z,0
2019-01-19T05:54:41.438Z,0
2019-01-19T05:55:41.667Z,0
2019-01-19T05:56:41.629Z,0
2019-01-19T05:57:41.617Z,0
2019-01-19T05:58:41.362Z,0
2019-01-19T05:59:41.588Z,0
2019-01-19T06:00:41.591Z,0
2019-01-19T06:01:41.822Z,0
2019-01-19T06:02:41.297Z,0
2019-01-19T06:03:41.554Z,0
2019-01-19T06:04:41.547Z,0
2019-01-19T06:05:41.511Z,0
2019-01-19T06:06:48.745Z,0
2019-01-19T06:07:41.902Z,0
2019-01-19T06:08:41.462Z,0
2019-01-19T06:09:41.460Z,0
2019-01-19T06:10:41.706Z,0
2019-01-19T06:11:41.174Z,0
2019-01-19T06:12:41.693Z,0
2019-01-19T06:13:41.431Z,0
2019-01-19T06:14:41.643Z,0
2019-01-19T06:15:41.119Z,0
2019-01-19T06:16:41.346Z,0
2019-01-19T06:17:41.077Z,0
2019-01-19T06:18:41.072Z,0
2019-01-19T06:19:41.541Z,0
2019-01-19T06:20:41.299Z,0
2019-01-19T06:21:41.517Z,0
2019-01-19T06:22:41.244Z,0
2019-01-19T06:23:41.248Z,0
2019-01-19T06:24:41.236Z,0
2019-01-19T06:25:40.969Z,0
2019-01-19T06:26:41.201Z,0
2019-01-19T06:27:41.433Z,0
2019-01-19T06:28:41.181Z,0
2019-01-19T06:29:40.913Z,0
2019-01-19T06:30:41.141Z,0
2019-01-19T06:31:41.147Z,0
2019-01-19T06:32:41.135Z,0
2019-01-19T06:33:41.347Z,0
2019-01-19T06:34:41.082Z,0
2019-01-19T06:35:41.060Z,4
2019-01-19T06:36:41.081Z,4
2019-01-19T06:37:40.777Z,4
2019-01-19T06:38:41.259Z,0
2019-01-19T06:39:41.013Z,4
2019-01-19T06:40:41.231Z,4
2019-01-19T06:41:41.230Z,8
2019-01-19T06:42:40.708Z,4
2019-01-19T06:43:40.934Z,8
2019-01-19T06:44:40.940Z,8
2019-01-19T06:45:40.663Z,8
2019-01-19T06:46:40.921Z,8
2019-01-19T06:47:40.631Z,12
2019-01-19T06:48:40.871Z,16
2019-01-19T06:49:40.867Z,16
2019-01-19T06:50:40.591Z,20
2019-01-19T06:51:40.848Z,24
2019-01-19T06:52:40.827Z,28
2019-01-19T06:53:40.782Z,32
2019-01-19T06:54:40.543Z,36
2019-01-19T06:55:41.012Z,40
2019-01-19T06:56:40.527Z,48
2019-01-19T06:57:40.722Z,56
2019-01-19T06:58:40.962Z,64
2019-01-19T06:59:40.703Z,76
2019-01-19T07:00:40.689Z,84
2019-01-19T07:01:40.926Z,96
2019-01-19T07:02:40.656Z,108
2019-01-19T07:03:40.404Z,124
2019-01-19T07:04:40.384Z,136
2019-01-19T07:05:40.110Z,152
2019-01-19T07:06:40.622Z,172
2019-01-19T07:07:40.326Z,188
2019-01-19T07:08:40.307Z,212
2019-01-19T07:09:40.556Z,232
2019-01-19T07:10:40.592Z,256
2019-01-19T07:11:40.519Z,280
2019-01-19T07:12:40.757Z,304
2019-01-19T07:13:40.513Z,336
2019-01-19T07:14:39.989Z,368
2019-01-19T07:15:40.504Z,400
2019-01-19T07:16:40.452Z,436
2019-01-19T07:17:40.666Z,468
2019-01-19T07:18:40.409Z,508
2019-01-19T07:19:40.391Z,548
2019-01-19T07:20:40.402Z,588
2019-01-19T07:21:40.607Z,628
2019-01-19T07:22:40.585Z,668
2019-01-19T07:23:40.591Z,712
2019-01-19T07:24:40.078Z,748
2019-01-19T07:25:40.057Z,796
2019-01-19T07:26:40.321Z,840
2019-01-19T07:27:40.532Z,924
2019-01-19T07:28:40.280Z,984
2019-01-19T07:29:40.272Z,992
2019-01-19T07:30:40.504Z,1032
2019-01-19T07:31:39.982Z,1096
2019-01-19T07:32:39.961Z,1176
2019-01-19T07:33:39.948Z,1264
2019-01-19T07:34:40.193Z,1332
2019-01-19T07:35:40.412Z,1360
2019-01-19T07:36:39.924Z,1368
2019-01-19T07:37:40.130Z,1408
2019-01-19T07:38:39.643Z,1456
2019-01-19T07:39:40.104Z,1516
2019-01-19T07:40:40.337Z,1604
2019-01-19T07:41:40.334Z,1692
2019-01-19T07:42:41.221Z,1736
2019-01-19T07:43:39.823Z,1772
2019-01-19T07:44:40.291Z,1824
2019-01-19T07:45:40.286Z,1868
2019-01-19T07:46:39.763Z,1896
2019-01-19T07:47:40.442Z,1920
2019-01-19T07:48:39.791Z,1916
2019-01-19T07:49:40.018Z,1884
2019-01-19T07:50:39.972Z,1884
2019-01-19T07:51:39.977Z,1912
2019-01-19T07:52:39.984Z,1972
2019-01-19T07:53:40.177Z,2060
2019-01-19T07:54:39.420Z,2116
2019-01-19T07:55:39.926Z,2196
2019-01-19T07:56:39.646Z,2256
2019-01-19T07:57:39.867Z,2296
2019-01-19T07:58:39.395Z,2308
2019-01-19T07:59:40.090Z,2320
2019-01-19T08:00:40.095Z,2336
2019-01-19T08:01:40.085Z,2364
2019-01-19T08:02:39.539Z,2380
2019-01-19T08:03:39.523Z,2380
2019-01-19T08:04:40.044Z,2440
2019-01-19T08:05:40.000Z,2376
2019-01-19T08:06:40.000Z,2392
2019-01-19T08:07:39.736Z,2436
2019-01-19T08:08:39.985Z,2444
2019-01-19T08:09:40.277Z,2512
2019-01-19T08:10:39.684Z,2620
2019-01-19T08:11:39.420Z,2672
2019-01-19T08:12:39.668Z,2760
2019-01-19T08:13:39.649Z,2840
2019-01-19T08:14:39.905Z,2852
2019-01-19T08:15:39.883Z,2916
2019-01-19T08:16:39.884Z,2908
2019-01-19T08:17:39.607Z,2880
2019-01-19T08:18:39.591Z,2888
2019-01-19T08:19:39.829Z,2920
2019-01-19T08:20:39.316Z,2972
2019-01-19T08:21:39.801Z,3020
2019-01-19T08:22:39.768Z,3020
2019-01-19T08:23:39.772Z,3016
2019-01-19T08:24:39.281Z,3028
2019-01-19T08:25:39.254Z,3052
2019-01-19T08:26:39.749Z,3088
2019-01-19T08:27:39.472Z,3156
2019-01-19T08:28:39.221Z,3204
2019-01-19T08:29:39.429Z,3276
2019-01-19T08:30:39.431Z,3308
2019-01-19T08:31:38.913Z,3436
2019-01-19T08:32:39.637Z,3468
2019-01-19T08:33:39.389Z,3456
2019-01-19T08:34:39.378Z,3384
2019-01-19T08:35:39.382Z,3336
2019-01-19T08:36:39.375Z,3316
2019-01-19T08:37:39.337Z,3396
2019-01-19T08:38:39.319Z,3404
2019-01-19T08:39:39.309Z,3444
2019-01-19T08:40:39.282Z,3540
2019-01-19T08:41:39.276Z,3656
2019-01-19T08:42:39.265Z,3764
2019-01-19T08:43:39.255Z,3836
2019-01-19T08:44:39.254Z,3872
2019-01-19T08:45:39.472Z,3888
2019-01-19T08:46:39.220Z,3908
2019-01-19T08:47:39.442Z,3936
2019-01-19T08:48:39.429Z,3964
2019-01-19T08:49:39.421Z,3988
2019-01-19T08:50:38.748Z,4016
2019-01-19T08:51:39.152Z,4096
2019-01-19T08:52:39.133Z,4156
2019-01-19T08:53:39.370Z,4188
2019-01-19T08:54:38.871Z,4200
2019-01-19T08:55:38.857Z,4212
2019-01-19T08:56:40.584Z,4220
2019-01-19T08:57:38.581Z,4248
2019-01-19T08:58:39.079Z,4260
2019-01-19T08:59:39.287Z,4272
2019-01-19T09:00:39.301Z,4296
2019-01-19T09:01:39.106Z,4316
2019-01-19T09:02:38.770Z,4296
2019-01-19T09:03:39.009Z,4292
2019-01-19T09:04:39.229Z,4308
2019-01-19T09:05:38.983Z,4272
2019-01-19T09:06:38.949Z,4340
2019-01-19T09:07:40.922Z,4300
2019-01-19T09:08:38.684Z,4276
2019-01-19T09:09:38.682Z,4352
2019-01-19T09:10:38.682Z,4376
2019-01-19T09:11:38.656Z,4412
2019-01-19T09:12:39.159Z,4444
2019-01-19T09:13:38.612Z,4472
2019-01-19T09:14:38.611Z,4588
2019-01-19T09:15:38.582Z,4600
2019-01-19T09:16:45.334Z,4652
2019-01-19T09:17:39.085Z,4632
2019-01-19T09:18:39.239Z,4672
2019-01-19T09:19:38.299Z,4768
2019-01-19T09:20:38.521Z,4572
2019-01-19T09:21:38.536Z,3880
2019-01-19T09:22:39.011Z,3836
2019-01-19T09:23:38.540Z,3824
2019-01-19T09:24:38.982Z,3952
2019-01-19T09:25:38.729Z,3860
2019-01-19T09:26:38.978Z,3892
2019-01-19T09:27:38.222Z,4032
2019-01-19T09:28:39.472Z,4420
2019-01-19T09:29:38.427Z,4340
2019-01-19T09:30:38.665Z,4628
2019-01-19T09:31:38.644Z,4812
2019-01-19T09:32:38.623Z,4920
2019-01-19T09:33:38.371Z,5616
2019-01-19T09:34:41.215Z,5908
2019-01-19T09:35:38.577Z,5732
2019-01-19T09:36:38.593Z,5488
2019-01-19T09:37:46.881Z,4952
2019-01-19T09:38:38.072Z,4764
2019-01-19T09:39:38.853Z,4556
2019-01-19T09:40:38.293Z,4420
2019-01-19T09:41:38.526Z,4260
2019-01-19T09:42:38.500Z,4188
2019-01-19T09:43:38.493Z,4164
2019-01-19T09:44:38.480Z,4140
2019-01-19T09:45:39.834Z,4108
2019-01-19T09:46:38.711Z,4128
2019-01-19T09:47:38.449Z,4200
2019-01-19T09:48:38.442Z,4280
2019-01-19T09:49:38.418Z,4316
2019-01-19T09:50:39.198Z,4328
2019-01-19T09:51:38.529Z,4364
2019-01-19T09:52:38.154Z,4324
2019-01-19T09:53:38.139Z,4300
2019-01-19T09:54:38.362Z,4316
2019-01-19T09:55:38.371Z,4308
2019-01-19T09:56:38.088Z,4300
2019-01-19T09:57:39.244Z,4340
2019-01-19T09:58:38.330Z,4600
2019-01-19T09:59:38.552Z,4556
2019-01-19T10:00:49.916Z,4476
2019-01-19T10:01:38.537Z,4468
2019-01-19T10:02:38.280Z,4608
2019-01-19T10:03:38.151Z,4500
2019-01-19T10:04:38.236Z,4480
2019-01-19T10:05:37.987Z,4532
2019-01-19T10:06:38.223Z,4560
2019-01-19T10:07:38.455Z,4592
2019-01-19T10:08:37.980Z,4580
2019-01-19T10:09:37.686Z,4524
2019-01-19T10:10:38.436Z,4524
2019-01-19T10:11:37.918Z,4508
2019-01-19T10:12:37.953Z,4404
2019-01-19T10:13:38.166Z,4340
2019-01-19T10:14:37.925Z,4340
2019-01-19T10:15:37.625Z,4324
2019-01-19T10:16:38.354Z,4348
2019-01-19T10:17:38.115Z,4348
2019-01-19T10:18:38.162Z,4348
2019-01-19T10:19:38.089Z,4304
2019-01-19T10:20:38.114Z,4212
2019-01-19T10:21:37.581Z,4172
2019-01-19T10:22:38.042Z,4220
2019-01-19T10:23:38.281Z,4324
2019-01-19T10:24:38.013Z,4372
2019-01-19T10:25:38.023Z,4332
2019-01-19T10:26:38.006Z,4264
2019-01-19T10:27:44.159Z,4200
2019-01-19T10:28:37.999Z,4180
2019-01-19T10:29:38.035Z,4120
2019-01-19T10:30:37.455Z,4088
2019-01-19T10:31:37.945Z,4068
2019-01-19T10:32:37.931Z,4056
2019-01-19T10:33:37.681Z,4064
2019-01-19T10:34:37.902Z,4016
2019-01-19T10:35:37.651Z,3956
2019-01-19T10:36:38.130Z,4004
2019-01-19T10:37:37.878Z,4040
2019-01-19T10:38:38.119Z,4008
2019-01-19T10:39:37.877Z,3992
2019-01-19T10:40:37.867Z,3960
2019-01-19T10:41:45.316Z,3924
2019-01-19T10:42:37.814Z,3904
2019-01-19T10:43:38.073Z,3844
2019-01-19T10:44:38.046Z,3756
2019-01-19T10:45:37.839Z,3704
2019-01-19T10:46:38.041Z,3744
2019-01-19T10:47:38.012Z,3788
2019-01-19T10:48:37.755Z,3832
2019-01-19T10:49:37.759Z,3780
2019-01-19T10:50:37.766Z,3684
2019-01-19T10:51:37.991Z,3668
2019-01-19T10:52:37.975Z,3656
2019-01-19T10:53:37.703Z,3648
2019-01-19T10:54:37.703Z,3624
2019-01-19T10:55:37.670Z,3604
2019-01-19T10:56:37.694Z,3572
2019-01-19T10:57:37.645Z,3504
2019-01-19T10:58:37.888Z,3408
2019-01-19T10:59:37.613Z,3340
2019-01-19T11:00:37.387Z,3300
2019-01-19T11:01:37.599Z,3260
2019-01-19T11:02:37.601Z,3196
2019-01-19T11:03:37.824Z,3092
2019-01-19T11:04:37.557Z,2980
2019-01-19T11:05:37.568Z,2904
2019-01-19T11:06:37.531Z,2896
2019-01-19T11:07:37.554Z,2952
2019-01-19T11:08:37.518Z,3024
2019-01-19T11:09:37.519Z,3064
2019-01-19T11:10:37.804Z,3036
2019-01-19T11:11:37.737Z,2972
2019-01-19T11:12:37.226Z,2888
2019-01-19T11:13:37.494Z,2832
2019-01-19T11:14:37.458Z,2804
2019-01-19T11:15:37.681Z,2824
2019-01-19T11:16:37.192Z,2848
2019-01-19T11:17:37.173Z,2848
2019-01-19T11:18:37.151Z,2864
2019-01-19T11:19:37.416Z,2884
2019-01-19T11:20:37.398Z,2872
2019-01-19T11:21:37.376Z,2860
2019-01-19T11:22:37.353Z,2836
2019-01-19T11:23:44.396Z,2816
2019-01-19T11:24:37.096Z,2812
2019-01-19T11:25:37.123Z,2800
2019-01-19T11:26:37.325Z,2800
2019-01-19T11:27:37.292Z,2788
2019-01-19T11:28:37.531Z,2740
2019-01-19T11:29:37.048Z,2676
2019-01-19T11:30:37.034Z,2672
2019-01-19T11:31:37.240Z,2736
2019-01-19T11:32:44.269Z,2784
2019-01-19T11:33:37.233Z,2784
2019-01-19T11:34:36.990Z,2792
2019-01-19T11:35:36.970Z,2776
2019-01-19T11:36:37.189Z,2744
2019-01-19T11:37:37.145Z,2688
2019-01-19T11:38:37.443Z,2664
2019-01-19T11:39:37.162Z,2692
2019-01-19T11:40:36.958Z,2740
2019-01-19T11:41:36.880Z,2768
2019-01-19T11:42:37.130Z,2772
2019-01-19T11:43:36.862Z,2768
2019-01-19T11:44:37.380Z,2724
2019-01-19T11:45:37.334Z,2660
2019-01-19T11:46:37.081Z,2632
2019-01-19T11:47:37.079Z,2652
2019-01-19T11:48:37.052Z,2656
2019-01-19T11:49:37.282Z,2632
2019-01-19T11:50:37.024Z,2628
2019-01-19T11:51:36.756Z,2672
2019-01-19T11:52:36.760Z,2680
2019-01-19T11:53:36.990Z,2640
2019-01-19T11:54:36.999Z,2572
2019-01-19T11:55:36.549Z,2560
2019-01-19T11:56:36.705Z,2604
2019-01-19T11:57:36.951Z,2616
2019-01-19T11:58:37.250Z,2592
2019-01-19T11:59:36.937Z,2560
2019-01-19T12:00:36.908Z,2544
2019-01-19T12:01:36.421Z,2528
2019-01-19T12:02:43.868Z,2488
2019-01-19T12:03:36.626Z,2452
2019-01-19T12:04:37.838Z,2412
2019-01-19T12:05:36.851Z,2360
2019-01-19T12:06:37.099Z,2300
2019-01-19T12:07:36.583Z,2256
2019-01-19T12:08:36.842Z,2220
2019-01-19T12:09:37.062Z,2196
2019-01-19T12:10:36.841Z,2196
2019-01-19T12:11:37.028Z,2228
2019-01-19T12:12:37.044Z,2264
2019-01-19T12:13:36.749Z,2264
2019-01-19T12:14:36.497Z,2256
2019-01-19T12:15:36.730Z,2240
2019-01-19T12:16:36.766Z,2220
2019-01-19T12:17:36.551Z,2188
2019-01-19T12:18:36.941Z,2168
2019-01-19T12:19:36.683Z,2156
2019-01-19T12:20:36.435Z,2132
2019-01-19T12:21:36.897Z,2092
2019-01-19T12:22:36.545Z,2064
2019-01-19T12:23:36.169Z,2048
2019-01-19T12:24:36.640Z,2044
2019-01-19T12:25:36.603Z,2064
2019-01-19T12:26:36.835Z,2088
2019-01-19T12:27:36.655Z,2124
2019-01-19T12:28:36.825Z,2160
2019-01-19T12:29:36.829Z,2192
2019-01-19T12:30:36.312Z,2216
2019-01-19T12:31:36.782Z,2232
2019-01-19T12:32:36.527Z,2268
2019-01-19T12:33:36.275Z,2304
2019-01-19T12:34:36.239Z,2320
2019-01-19T12:35:36.481Z,2328
2019-01-19T12:36:36.646Z,2316
2019-01-19T12:37:36.493Z,2296
2019-01-19T12:38:36.453Z,2264
2019-01-19T12:39:36.450Z,2232
2019-01-19T12:40:36.443Z,2212
2019-01-19T12:41:36.173Z,2224
2019-01-19T12:42:36.411Z,2236
2019-01-19T12:43:36.399Z,2228
2019-01-19T12:44:36.735Z,2204
2019-01-19T12:45:36.409Z,2168
2019-01-19T12:46:36.393Z,2136
2019-01-19T12:47:36.359Z,2128
2019-01-19T12:48:36.079Z,2132
2019-01-19T12:49:36.345Z,2124
2019-01-19T12:50:35.831Z,2088
2019-01-19T12:52:36.521Z,2024
2019-01-19T12:53:36.282Z,2008
2019-01-19T12:54:36.295Z,2000
2019-01-19T12:55:36.037Z,2008
2019-01-19T12:56:36.492Z,2036
2019-01-19T12:57:36.532Z,2076
2019-01-19T12:58:35.968Z,2092
2019-01-19T12:59:36.210Z,2064
2019-01-19T13:00:36.442Z,2028
2019-01-19T13:01:36.197Z,2012
2019-01-19T13:02:36.170Z,1996
2019-01-19T13:03:36.413Z,1976
2019-01-19T13:04:35.901Z,1972
2019-01-19T13:05:36.127Z,1996
2019-01-19T13:06:35.878Z,2012
2019-01-19T13:07:36.093Z,2008
2019-01-19T13:08:41.443Z,2000
2019-01-19T13:09:35.860Z,2004
2019-01-19T13:10:35.573Z,2008
2019-01-19T13:11:36.059Z,2012
2019-01-19T13:12:35.832Z,2036
2019-01-19T13:13:36.015Z,2080
2019-01-19T13:14:36.276Z,2136
2019-01-19T13:15:35.541Z,2188
2019-01-19T13:16:36.013Z,2228
2019-01-19T13:17:36.222Z,2236
2019-01-19T13:18:35.731Z,2256
2019-01-19T13:19:36.202Z,2276
2019-01-19T13:20:36.527Z,2304
2019-01-19T13:21:36.185Z,2340
2019-01-19T13:22:36.175Z,2364
2019-01-19T13:23:36.160Z,2376
2019-01-19T13:24:36.190Z,2420
2019-01-19T13:25:36.125Z,2464
2019-01-19T13:26:36.163Z,2452
2019-01-19T13:27:36.117Z,2420
2019-01-19T13:28:35.834Z,2376
2019-01-19T13:29:35.581Z,2328
2019-01-19T13:30:35.579Z,2288
2019-01-19T13:31:35.962Z,2284
2019-01-19T13:32:35.791Z,2276
2019-01-19T13:33:36.048Z,2232
2019-01-19T13:34:35.780Z,2184
2019-01-19T13:35:35.514Z,2180
2019-01-19T13:36:35.503Z,2208
2019-01-19T13:37:35.757Z,2224
2019-01-19T13:38:41.695Z,2216
2019-01-19T13:39:35.481Z,2232
2019-01-19T13:40:35.960Z,2260
2019-01-19T13:41:35.960Z,2256
2019-01-19T13:42:35.981Z,2236
2019-01-19T13:43:35.930Z,2188
2019-01-19T13:44:35.654Z,2176
2019-01-19T13:45:35.643Z,2180
2019-01-19T13:46:35.873Z,2164
2019-01-19T13:47:35.871Z,2120
2019-01-19T13:48:35.845Z,2088
2019-01-19T13:49:35.849Z,2096
2019-01-19T13:50:35.833Z,2136
2019-01-19T13:51:35.601Z,2172
2019-01-19T13:52:35.594Z,2164
2019-01-19T13:53:35.549Z,2120
2019-01-19T13:54:35.766Z,2056
2019-01-19T13:55:35.281Z,2000
2019-01-19T13:56:35.968Z,2004
2019-01-19T13:57:35.821Z,2036
2019-01-19T13:58:35.749Z,2064
2019-01-19T13:59:35.722Z,2072
2019-01-19T14:00:35.735Z,2060
2019-01-19T14:01:35.460Z,2040
2019-01-19T14:02:35.708Z,2032